Disclaimer

Please do not use the information listed here in-flight or in-navigation, as they are not provided to us by the airports but are provided by volunteers, so they might be outdated.

Search


Regions


Airport information page

No radio frequency information is available.

Airport informations:
Latitude: 06° 10' 13.57" S
Longitude: 035° 45' 09.28" E
Elevation: 3637 feet - 1109 meters
Operating hours: Remarks
Operating agency: Civil government, landing fees and diplomatic clearance may be required
Timezone: UTC+3
Fuel: Jet A1+, Jet A1 with icing inhibitor.

100/130 MIL Spec, low lead, aviation gasoline (BLUE)

Runway information:
10/28 - 6700 x 98 feet< - >2042 x 30 meters

Recent METARs:
HTDO 131400Z 09011KT 9999 FEW035 30/12 Q1013 NOSIG
HTDO 131500Z 09014KT 9999 FEW034 28/13 Q1013 NOSIG
HTDO 131500Z 09014KT 9999 FEW034 28/13 Q1013 NOSIG

Airport on the map: